Time;durP1;ratioP1;P1;durP2;ratioP2;P2;SDS_P1;SDS_P2;PMS_P1;PMS_P2;Temp;Humidity;BMP_temperature;BMP_pressure;BME280_temperature;BME280_humidity;BME280_pressure;Samples;Min_cycle;Max_cycle;Signal;HPM_P1;HPM_P2
2020/12/13 00:00:49;;;;;;;19.33;12.97;;;;;;;;;;5075859;28;20619;-62
2020/12/13 00:03:15;;;;;;;23.83;15.87;;;;;;;;;;5092758;28;20269;-62
2020/12/13 00:05:42;;;;;;;22.03;13.97;;;;;;;;;;5096807;28;20203;-62
2020/12/13 00:08:08;;;;;;;23.33;15.33;;;;;;;;;;5099607;28;20724;-61
2020/12/13 00:10:34;;;;;;;19.40;14.37;;;;;;;;;;5090399;28;20175;-61
2020/12/13 00:13:00;;;;;;;23.47;14.33;;;;;;;;;;5101304;28;20168;-62
2020/12/13 00:15:26;;;;;;;21.03;13.97;;;;;;;;;;5086549;28;20702;-62
2020/12/13 00:17:52;;;;;;;23.13;15.80;;;;;;;;;;5109111;28;20172;-62
2020/12/13 00:20:18;;;;;;;21.80;14.10;;;;;;;;;;5109619;28;20179;-62
2020/12/13 00:22:45;;;;;;;22.43;14.13;;;;;;;;;;5091229;28;20610;-62
2020/12/13 00:25:11;;;;;;;19.23;13.30;;;;;;;;;;5089565;28;20717;-61
2020/12/13 00:27:38;;;;;;;19.53;13.37;;;;;;;;;;5112107;27;20182;-61
2020/12/13 00:30:05;;;;;;;23.30;14.07;;;;;;;;;;5111965;28;20614;-61
2020/12/13 00:32:32;;;;;;;17.67;13.23;;;;;;;;;;5110317;28;20253;-61
2020/12/13 00:34:58;;;;;;;21.03;13.43;;;;;;;;;;5093932;28;20215;-63
2020/12/13 00:37:25;;;;;;;19.60;14.17;;;;;;;;;;5107655;28;20195;-61
2020/12/13 00:39:51;;;;;;;19.07;12.87;;;;;;;;;;5113823;28;20258;-61
2020/12/13 00:42:17;;;;;;;20.60;12.90;;;;;;;;;;5094065;28;20202;-62
2020/12/13 00:44:43;;;;;;;21.27;14.00;;;;;;;;;;5111589;28;20183;-62
2020/12/13 00:47:09;;;;;;;18.90;13.47;;;;;;;;;;5101965;28;20183;-62
2020/12/13 00:49:35;;;;;;;18.90;12.30;;;;;;;;;;5112973;28;20193;-61
2020/12/13 00:52:01;;;;;;;18.83;13.33;;;;;;;;;;5110374;28;20183;-62
2020/12/13 00:54:27;;;;;;;18.63;13.47;;;;;;;;;;5112181;28;20199;-62
2020/12/13 00:56:53;;;;;;;19.93;13.23;;;;;;;;;;5108918;27;20252;-62
2020/12/13 00:59:19;;;;;;;16.57;11.67;;;;;;;;;;5108669;28;20184;-62
2020/12/13 01:01:45;;;;;;;18.17;13.00;;;;;;;;;;5104259;28;20685;-64
2020/12/13 01:04:11;;;;;;;18.13;12.10;;;;;;;;;;5098813;28;20302;-61
2020/12/13 01:06:37;;;;;;;18.10;12.63;;;;;;;;;;5061058;28;20206;-62
2020/12/13 01:09:04;;;;;;;19.77;12.83;;;;;;;;;;5104995;28;20179;-62
2020/12/13 01:11:30;;;;;;;16.53;11.70;;;;;;;;;;5104795;28;20274;-61
2020/12/13 01:13:57;;;;;;;16.80;12.57;;;;;;;;;;5100933;28;20227;-62
2020/12/13 01:16:23;;;;;;;19.80;13.40;;;;;;;;;;5087720;28;20179;-62
2020/12/13 01:18:50;;;;;;;18.27;11.63;;;;;;;;;;5098857;28;20179;-62
2020/12/13 01:21:17;;;;;;;19.20;12.33;;;;;;;;;;5095368;28;20175;-63
2020/12/13 01:23:43;;;;;;;16.80;13.07;;;;;;;;;;5084185;28;20180;-62
2020/12/13 01:26:10;;;;;;;18.53;12.60;;;;;;;;;;5109425;28;20304;-63
2020/12/13 01:28:37;;;;;;;16.97;11.80;;;;;;;;;;5091825;28;20578;-63
2020/12/13 01:31:03;;;;;;;19.00;12.73;;;;;;;;;;5111041;28;20252;-61
2020/12/13 01:33:29;;;;;;;20.23;12.97;;;;;;;;;;5078687;28;20245;-61
2020/12/13 01:35:55;;;;;;;20.63;13.17;;;;;;;;;;5071433;28;20184;-62
2020/12/13 01:38:21;;;;;;;18.80;13.47;;;;;;;;;;5085140;28;20551;-62
2020/12/13 01:40:47;;;;;;;21.77;14.17;;;;;;;;;;5106318;28;20171;-62
2020/12/13 01:43:13;;;;;;;19.37;13.90;;;;;;;;;;5108550;28;20183;-62
2020/12/13 01:45:39;;;;;;;20.03;14.03;;;;;;;;;;5110975;28;20201;-62
2020/12/13 01:48:05;;;;;;;21.50;13.27;;;;;;;;;;5101821;28;20262;-62
2020/12/13 01:50:43;;;;;;;19.80;13.70;;;;;;;;;;5102390;28;20242;-61
2020/12/13 01:53:14;;;;;;;22.83;14.53;;;;;;;;;;5095040;28;20163;-62
2020/12/13 01:55:41;;;;;;;19.03;13.60;;;;;;;;;;5079185;28;20168;-62
2020/12/13 01:58:09;;;;;;;22.57;14.70;;;;;;;;;;5093823;28;20178;-62
2020/12/13 02:00:35;;;;;;;18.90;14.03;;;;;;;;;;5092028;28;20179;-62
2020/12/13 02:03:02;;;;;;;21.53;14.40;;;;;;;;;;5100076;28;20175;-62
2020/12/13 02:05:28;;;;;;;22.43;13.97;;;;;;;;;;5100279;28;20712;-62
2020/12/13 02:07:55;;;;;;;20.57;14.63;;;;;;;;;;5099161;28;20179;-63
2020/12/13 02:10:22;;;;;;;22.37;14.97;;;;;;;;;;5106937;28;20175;-61
2020/12/13 02:12:48;;;;;;;23.20;15.57;;;;;;;;;;5068322;28;20181;-62
2020/12/13 02:15:14;;;;;;;20.77;15.00;;;;;;;;;;5110739;28;20203;-61
2020/12/13 02:17:41;;;;;;;24.47;16.37;;;;;;;;;;5096989;28;20169;-62
2020/12/13 02:20:08;;;;;;;22.57;15.53;;;;;;;;;;5106955;28;20207;-61
2020/12/13 02:22:38;;;;;;;24.00;16.77;;;;;;;;;;5094717;28;20628;-63
2020/12/13 02:25:08;;;;;;;20.97;14.73;;;;;;;;;;5106276;28;20845;-61
2020/12/13 02:27:34;;;;;;;23.60;16.30;;;;;;;;;;5089434;28;20183;-62
2020/12/13 02:30:00;;;;;;;23.60;16.57;;;;;;;;;;5108123;28;20189;-61
2020/12/13 02:32:26;;;;;;;21.53;15.37;;;;;;;;;;5092562;28;20636;-61
2020/12/13 02:34:52;;;;;;;24.50;16.80;;;;;;;;;;5087476;28;20215;-63
2020/12/13 02:37:18;;;;;;;22.13;15.63;;;;;;;;;;5108410;28;20183;-61
2020/12/13 02:39:44;;;;;;;24.73;16.67;;;;;;;;;;5110418;28;20171;-61
2020/12/13 02:42:10;;;;;;;25.43;17.00;;;;;;;;;;5104737;28;20186;-62
2020/12/13 02:44:36;;;;;;;25.80;17.60;;;;;;;;;;5099404;28;20184;-63
2020/12/13 02:47:02;;;;;;;20.87;16.67;;;;;;;;;;5094659;28;20633;-62
2020/12/13 02:49:28;;;;;;;23.67;16.43;;;;;;;;;;5105538;28;20178;-61
2020/12/13 02:51:54;;;;;;;23.90;17.17;;;;;;;;;;5094352;28;20188;-61
2020/12/13 02:54:20;;;;;;;23.67;16.10;;;;;;;;;;5105412;28;20687;-62
2020/12/13 02:56:46;;;;;;;24.93;17.37;;;;;;;;;;5100308;28;20210;-62
2020/12/13 02:59:12;;;;;;;23.70;18.37;;;;;;;;;;5103551;28;20194;-61
2020/12/13 03:01:38;;;;;;;28.00;17.40;;;;;;;;;;5101899;28;20187;-61
2020/12/13 03:04:04;;;;;;;27.23;18.07;;;;;;;;;;5078643;28;20280;-61
2020/12/13 03:06:30;;;;;;;27.03;17.00;;;;;;;;;;5075228;28;20184;-62
2020/12/13 03:08:57;;;;;;;28.40;18.17;;;;;;;;;;5102210;28;20888;-61
2020/12/13 03:11:23;;;;;;;25.47;16.93;;;;;;;;;;5110165;28;20539;-62
2020/12/13 03:13:52;;;;;;;26.13;18.13;;;;;;;;;;5099770;28;20204;-62
2020/12/13 03:16:19;;;;;;;26.47;17.83;;;;;;;;;;5098184;28;20172;-61
2020/12/13 03:18:45;;;;;;;26.87;17.87;;;;;;;;;;5098592;28;20240;-61
2020/12/13 03:21:11;;;;;;;27.77;18.20;;;;;;;;;;5101581;28;20686;-62
2020/12/13 03:23:37;;;;;;;28.63;17.83;;;;;;;;;;5093986;28;20198;-62
2020/12/13 03:26:03;;;;;;;27.73;18.73;;;;;;;;;;5096177;28;20674;-62
2020/12/13 03:28:29;;;;;;;25.30;17.77;;;;;;;;;;5088841;28;20180;-61
2020/12/13 03:30:55;;;;;;;23.30;17.70;;;;;;;;;;5093873;28;20207;-64
2020/12/13 03:33:22;;;;;;;27.80;20.07;;;;;;;;;;5072937;28;20570;-61
2020/12/13 03:35:48;;;;;;;26.67;17.73;;;;;;;;;;5085351;28;20538;-61
2020/12/13 03:38:14;;;;;;;24.10;17.63;;;;;;;;;;5082121;28;20168;-61
2020/12/13 03:40:40;;;;;;;26.10;17.57;;;;;;;;;;5109718;28;20172;-61
2020/12/13 03:43:06;;;;;;;25.47;17.87;;;;;;;;;;5096842;28;20175;-62
2020/12/13 03:45:32;;;;;;;28.73;18.60;;;;;;;;;;5106449;28;20175;-61
2020/12/13 03:47:58;;;;;;;24.03;17.20;;;;;;;;;;5101175;28;20175;-61
2020/12/13 03:50:24;;;;;;;27.90;18.10;;;;;;;;;;5100206;28;20259;-62
2020/12/13 03:52:50;;;;;;;23.57;17.07;;;;;;;;;;5106141;28;20182;-61
2020/12/13 03:55:16;;;;;;;27.43;17.90;;;;;;;;;;5096538;28;20200;-61
2020/12/13 03:57:42;;;;;;;28.83;19.03;;;;;;;;;;5105582;28;20187;-62
2020/12/13 04:00:10;;;;;;;25.53;18.37;;;;;;;;;;5104578;28;20176;-62
2020/12/13 04:02:36;;;;;;;27.73;19.00;;;;;;;;;;5095685;28;20653;-64
2020/12/13 04:05:02;;;;;;;24.70;18.73;;;;;;;;;;5099551;28;20224;-62
2020/12/13 04:07:28;;;;;;;24.30;17.93;;;;;;;;;;5104799;28;20215;-63
2020/12/13 04:09:54;;;;;;;23.37;17.33;;;;;;;;;;5113604;28;20183;-61
2020/12/13 04:12:20;;;;;;;24.93;17.70;;;;;;;;;;5106556;28;20188;-61
2020/12/13 04:14:46;;;;;;;23.67;17.77;;;;;;;;;;5109046;28;20203;-64
2020/12/13 04:17:12;;;;;;;23.87;16.73;;;;;;;;;;5082726;28;20661;-61
2020/12/13 04:19:38;;;;;;;25.27;18.07;;;;;;;;;;5109878;28;20183;-62
2020/12/13 04:22:04;;;;;;;28.27;18.00;;;;;;;;;;5104178;28;20175;-61
2020/12/13 04:24:30;;;;;;;24.47;17.60;;;;;;;;;;5095857;28;20836;-61
2020/12/13 04:26:56;;;;;;;24.83;17.13;;;;;;;;;;5074250;28;20187;-61
2020/12/13 04:29:22;;;;;;;23.63;16.40;;;;;;;;;;5095038;28;20661;-62
2020/12/13 04:31:48;;;;;;;23.83;17.20;;;;;;;;;;5091807;28;20729;-62
2020/12/13 04:34:14;;;;;;;26.13;16.07;;;;;;;;;;5087133;28;20312;-62
2020/12/13 04:36:40;;;;;;;21.60;16.30;;;;;;;;;;5093246;28;20199;-60
2020/12/13 04:39:06;;;;;;;21.60;16.60;;;;;;;;;;5111564;28;20183;-63
2020/12/13 04:41:34;;;;;;;22.33;17.00;;;;;;;;;;5098370;28;21093;-61
2020/12/13 04:44:01;;;;;;;22.03;16.17;;;;;;;;;;5099874;28;20317;-61
2020/12/13 04:46:30;;;;;;;22.17;15.83;;;;;;;;;;5099343;28;20184;-60
2020/12/13 04:48:56;;;;;;;20.27;15.30;;;;;;;;;;5082352;28;20179;-61
2020/12/13 04:51:26;;;;;;;22.33;17.07;;;;;;;;;;5093070;28;20186;-61
2020/12/13 04:54:00;;;;;;;21.97;15.97;;;;;;;;;;5111185;28;20206;-60
2020/12/13 04:56:26;;;;;;;21.33;15.87;;;;;;;;;;5108645;28;20176;-61
2020/12/13 04:58:52;;;;;;;21.33;16.03;;;;;;;;;;5077073;28;20635;-61
2020/12/13 05:01:19;;;;;;;22.67;15.97;;;;;;;;;;5100227;28;20179;-61
2020/12/13 05:03:45;;;;;;;24.73;17.20;;;;;;;;;;5104896;28;20207;-60
2020/12/13 05:06:11;;;;;;;27.17;17.17;;;;;;;;;;5101626;28;20194;-60
2020/12/13 05:08:37;;;;;;;24.60;16.23;;;;;;;;;;5107789;28;20171;-60
2020/12/13 05:11:03;;;;;;;21.87;15.03;;;;;;;;;;5097499;28;20198;-60
2020/12/13 05:13:29;;;;;;;23.57;16.10;;;;;;;;;;5106778;28;20621;-61
2020/12/13 05:15:55;;;;;;;20.70;16.20;;;;;;;;;;5099713;28;20183;-61
2020/12/13 05:18:21;;;;;;;23.63;16.47;;;;;;;;;;5087497;28;20176;-61
2020/12/13 05:20:47;;;;;;;21.40;16.13;;;;;;;;;;5108159;28;20201;-61
2020/12/13 05:23:13;;;;;;;19.73;14.17;;;;;;;;;;5104922;28;20594;-61
2020/12/13 05:25:39;;;;;;;24.37;16.57;;;;;;;;;;5109043;28;20180;-60
2020/12/13 05:28:07;;;;;;;21.87;16.43;;;;;;;;;;5104326;28;20179;-60
2020/12/13 05:30:41;;;;;;;21.53;16.57;;;;;;;;;;5103969;28;20223;-61
2020/12/13 05:33:09;;;;;;;20.37;15.97;;;;;;;;;;5094828;28;20248;-63
2020/12/13 05:35:36;;;;;;;20.10;14.70;;;;;;;;;;5069613;28;20326;-61
2020/12/13 05:38:11;;;;;;;21.83;16.40;;;;;;;;;;5100698;28;20300;-60
2020/12/13 05:40:37;;;;;;;21.23;15.30;;;;;;;;;;5110926;28;20524;-61
2020/12/13 05:43:11;;;;;;;22.13;16.17;;;;;;;;;;5104291;28;20171;-60
2020/12/13 05:45:54;;;;;;;18.70;15.00;;;;;;;;;;5091164;28;20208;-62
2020/12/13 05:51:02;;;;;;;25.87;16.13;;;;;;;;;;5086233;28;20254;-61
2020/12/13 05:53:28;;;;;;;23.67;15.17;;;;;;;;;;5092095;28;20179;-60
2020/12/13 05:55:57;;;;;;;20.90;15.17;;;;;;;;;;5110716;28;20163;-60
2020/12/13 05:58:26;;;;;;;22.60;16.57;;;;;;;;;;5079375;28;20549;-61
2020/12/13 06:00:54;;;;;;;21.40;15.40;;;;;;;;;;5094483;28;20175;-60
2020/12/13 06:03:31;;;;;;;22.37;17.47;;;;;;;;;;5073444;28;20215;-60
2020/12/13 06:06:08;;;;;;;20.53;14.50;;;;;;;;;;5080189;28;20251;-61
2020/12/13 06:08:43;;;;;;;22.00;16.50;;;;;;;;;;5082234;28;20217;-60
2020/12/13 06:11:10;;;;;;;22.80;16.23;;;;;;;;;;5103663;28;20577;-61
2020/12/13 06:13:38;;;;;;;23.00;15.90;;;;;;;;;;5110291;28;20508;-60
2020/12/13 06:16:04;;;;;;;21.23;15.73;;;;;;;;;;5110896;28;20199;-60
2020/12/13 06:18:30;;;;;;;23.70;16.27;;;;;;;;;;5091298;28;20184;-63
2020/12/13 06:20:59;;;;;;;22.60;15.60;;;;;;;;;;5065573;28;20648;-61
2020/12/13 06:23:26;;;;;;;22.87;16.30;;;;;;;;;;5071288;28;20168;-61
2020/12/13 06:25:52;;;;;;;22.30;16.27;;;;;;;;;;5088212;28;20168;-61
2020/12/13 06:28:18;;;;;;;24.30;16.73;;;;;;;;;;5101570;28;20258;-61
2020/12/13 06:30:45;;;;;;;21.63;15.47;;;;;;;;;;5084348;28;20218;-60
2020/12/13 06:33:11;;;;;;;22.50;16.20;;;;;;;;;;5093922;28;20250;-60
2020/12/13 06:35:37;;;;;;;20.07;15.43;;;;;;;;;;5110089;28;20287;-60
2020/12/13 06:38:13;;;;;;;23.10;17.90;;;;;;;;;;5110970;28;20180;-60
2020/12/13 06:40:40;;;;;;;20.17;15.53;;;;;;;;;;5105875;28;20172;-61
2020/12/13 06:43:08;;;;;;;21.97;17.07;;;;;;;;;;5080901;28;20181;-61
2020/12/13 06:45:34;;;;;;;20.00;16.23;;;;;;;;;;5091676;28;20172;-60
2020/12/13 06:48:00;;;;;;;23.63;16.67;;;;;;;;;;5090497;28;20184;-61
2020/12/13 06:50:27;;;;;;;23.87;15.83;;;;;;;;;;5090365;28;20191;-61
2020/12/13 06:52:53;;;;;;;20.47;16.23;;;;;;;;;;5076025;28;20274;-63
2020/12/13 06:55:30;;;;;;;22.07;15.87;;;;;;;;;;5088738;28;20223;-62
2020/12/13 06:57:56;;;;;;;20.73;15.40;;;;;;;;;;5075641;28;20162;-60
2020/12/13 07:00:22;;;;;;;23.40;15.70;;;;;;;;;;5074139;28;20199;-60
2020/12/13 07:02:55;;;;;;;22.70;15.67;;;;;;;;;;5091842;28;20226;-61
2020/12/13 07:05:21;;;;;;;23.03;16.37;;;;;;;;;;5087202;28;20279;-60
2020/12/13 07:07:50;;;;;;;24.00;15.80;;;;;;;;;;5088373;28;20180;-62
2020/12/13 07:10:16;;;;;;;19.07;15.60;;;;;;;;;;5065808;28;20205;-61
2020/12/13 07:12:48;;;;;;;22.57;15.77;;;;;;;;;;5081499;28;20188;-61
2020/12/13 07:15:49;;;;;;;22.17;15.63;;;;;;;;;;5085514;28;20723;-61
2020/12/13 07:18:11;;;;;;;17.90;14.20;;;;;;;;;;5068160;28;20662;-61
2020/12/13 07:20:37;;;;;;;17.97;13.83;;;;;;;;;;5090247;28;20172;-60
2020/12/13 07:23:04;;;;;;;19.37;15.70;;;;;;;;;;5090311;28;20203;-61
2020/12/13 07:25:30;;;;;;;20.67;16.10;;;;;;;;;;5071563;28;20194;-61
2020/12/13 07:27:56;;;;;;;18.37;15.33;;;;;;;;;;5089933;28;20176;-63
2020/12/13 07:30:22;;;;;;;23.13;14.73;;;;;;;;;;5065597;28;20291;-61
2020/12/13 07:32:48;;;;;;;20.27;15.03;;;;;;;;;;5089599;28;20176;-60
2020/12/13 07:35:14;;;;;;;19.80;15.03;;;;;;;;;;5089000;28;20206;-61
2020/12/13 07:37:41;;;;;;;22.27;15.93;;;;;;;;;;5070275;28;20234;-61
2020/12/13 07:40:11;;;;;;;20.90;14.43;;;;;;;;;;5070269;28;20194;-61
2020/12/13 07:42:38;;;;;;;16.73;13.70;;;;;;;;;;5074500;28;20617;-61
2020/12/13 07:45:04;;;;;;;17.20;14.10;;;;;;;;;;5068439;28;20180;-61
2020/12/13 07:47:30;;;;;;;19.37;15.10;;;;;;;;;;5085289;28;20646;-62
2020/12/13 07:50:05;;;;;;;16.70;14.00;;;;;;;;;;5094452;28;20519;-62
2020/12/13 07:52:32;;;;;;;19.63;14.97;;;;;;;;;;5087668;28;20258;-62
2020/12/13 07:55:08;;;;;;;17.37;13.60;;;;;;;;;;5066744;28;20196;-62
2020/12/13 07:57:35;;;;;;;17.27;14.30;;;;;;;;;;5075026;28;20194;-62
2020/12/13 08:00:05;;;;;;;19.00;14.47;;;;;;;;;;5091009;28;20520;-62
2020/12/13 08:02:32;;;;;;;18.50;13.70;;;;;;;;;;5064766;28;20187;-62
2020/12/13 08:04:57;;;;;;;15.33;13.00;;;;;;;;;;5093812;28;20220;-63
2020/12/13 08:07:24;;;;;;;19.67;14.47;;;;;;;;;;5076987;28;20202;-63
2020/12/13 08:09:54;;;;;;;20.00;14.60;;;;;;;;;;5106343;28;20188;-62
2020/12/13 08:12:21;;;;;;;18.23;13.53;;;;;;;;;;5108544;28;20184;-63
2020/12/13 08:14:48;;;;;;;17.83;13.90;;;;;;;;;;5106413;28;20539;-64
2020/12/13 08:17:17;;;;;;;15.23;12.40;;;;;;;;;;5099031;27;20233;-63
2020/12/13 08:19:47;;;;;;;19.87;13.23;;;;;;;;;;5098945;28;20176;-62
2020/12/13 08:22:21;;;;;;;17.80;13.70;;;;;;;;;;5102627;28;20183;-61
2020/12/13 08:24:55;;;;;;;14.77;12.60;;;;;;;;;;5082942;28;20187;-62
2020/12/13 08:27:21;;;;;;;15.73;11.77;;;;;;;;;;5105663;27;20183;-62
2020/12/13 08:29:47;;;;;;;15.30;11.83;;;;;;;;;;5120172;27;20186;-63
2020/12/13 08:32:14;;;;;;;14.83;11.73;;;;;;;;;;5110681;27;20230;-63
2020/12/13 08:34:41;;;;;;;13.87;10.80;;;;;;;;;;5115222;27;20649;-63
2020/12/13 08:37:07;;;;;;;14.57;11.70;;;;;;;;;;5095266;28;20960;-62
2020/12/13 08:39:34;;;;;;;13.63;11.03;;;;;;;;;;5101601;28;20498;-62
2020/12/13 08:42:01;;;;;;;13.33;11.00;;;;;;;;;;5114554;28;20175;-62
2020/12/13 08:44:33;;;;;;;11.97;10.50;;;;;;;;;;5111522;28;20534;-61
2020/12/13 08:47:00;;;;;;;12.30;9.90;;;;;;;;;;5096910;27;20590;-64
2020/12/13 08:49:26;;;;;;;13.23;10.50;;;;;;;;;;5104480;28;20188;-63
2020/12/13 08:51:52;;;;;;;14.20;9.47;;;;;;;;;;5112498;27;20174;-63
2020/12/13 08:54:18;;;;;;;13.80;11.07;;;;;;;;;;5111256;28;20256;-62
2020/12/13 08:56:44;;;;;;;13.13;9.63;;;;;;;;;;5112049;28;20614;-63
2020/12/13 08:59:19;;;;;;;10.57;8.80;;;;;;;;;;5105171;28;20175;-62
2020/12/13 09:01:52;;;;;;;11.13;9.97;;;;;;;;;;5093622;28;20290;-62
2020/12/13 09:04:18;;;;;;;11.60;8.80;;;;;;;;;;5104155;28;20578;-63
2020/12/13 09:06:57;;;;;;;10.87;9.13;;;;;;;;;;5082348;28;20183;-65
2020/12/13 09:09:28;;;;;;;12.57;8.60;;;;;;;;;;5100227;27;20266;-62
2020/12/13 09:11:54;;;;;;;10.97;8.70;;;;;;;;;;5104831;27;20179;-62
2020/12/13 09:14:30;;;;;;;10.60;8.40;;;;;;;;;;5097793;28;20538;-64
2020/12/13 09:16:57;;;;;;;12.77;8.20;;;;;;;;;;5108237;27;20179;-62
2020/12/13 09:19:23;;;;;;;10.53;8.13;;;;;;;;;;5100434;27;20183;-62
2020/12/13 09:21:53;;;;;;;11.17;8.60;;;;;;;;;;5096740;28;20172;-61
2020/12/13 09:24:21;;;;;;;14.10;8.93;;;;;;;;;;5101922;28;20202;-62
2020/12/13 09:26:56;;;;;;;14.97;8.13;;;;;;;;;;5100317;28;20187;-62
2020/12/13 09:29:22;;;;;;;14.33;7.87;;;;;;;;;;5101089;28;20213;-62
2020/12/13 09:31:48;;;;;;;14.43;9.10;;;;;;;;;;5094474;28;20196;-63
2020/12/13 09:34:15;;;;;;;12.93;8.27;;;;;;;;;;5099276;28;20200;-64
2020/12/13 09:36:43;;;;;;;11.33;7.53;;;;;;;;;;5092610;28;20184;-62
2020/12/13 09:39:09;;;;;;;10.17;8.27;;;;;;;;;;5097587;27;20207;-62
2020/12/13 09:41:35;;;;;;;9.33;8.30;;;;;;;;;;5100202;28;20179;-63
2020/12/13 09:44:01;;;;;;;12.00;8.27;;;;;;;;;;5095057;28;20187;-63
2020/12/13 09:46:27;;;;;;;12.73;7.80;;;;;;;;;;5111889;27;20205;-63
2020/12/13 09:48:53;;;;;;;10.80;7.73;;;;;;;;;;5080240;28;20180;-63
2020/12/13 09:51:19;;;;;;;9.93;7.70;;;;;;;;;;5089539;28;20269;-62
2020/12/13 09:53:46;;;;;;;10.30;7.47;;;;;;;;;;5116564;27;20185;-63
2020/12/13 09:56:16;;;;;;;21.73;8.10;;;;;;;;;;5109896;28;20626;-62
2020/12/13 09:58:42;;;;;;;9.27;6.87;;;;;;;;;;5107106;28;20183;-62
2020/12/13 10:01:09;;;;;;;9.27;7.70;;;;;;;;;;5099262;28;20167;-62
2020/12/13 10:03:35;;;;;;;8.87;6.47;;;;;;;;;;5104432;28;20356;-63
2020/12/13 10:11:30;;;;;;;7.23;6.23;;;;;;;;;;5101728;27;20197;-63
2020/12/13 10:13:57;;;;;;;8.80;6.80;;;;;;;;;;5105817;27;20229;-62
2020/12/13 10:16:24;;;;;;;10.27;6.70;;;;;;;;;;5101825;27;20190;-62
2020/12/13 10:18:50;;;;;;;6.97;6.03;;;;;;;;;;5107471;28;20183;-63
2020/12/13 10:21:24;;;;;;;7.43;5.37;;;;;;;;;;5099089;28;20179;-62
2020/12/13 10:23:50;;;;;;;8.67;6.37;;;;;;;;;;5082078;28;20179;-63
2020/12/13 10:26:16;;;;;;;10.93;6.57;;;;;;;;;;5104645;27;20285;-62
2020/12/13 10:28:42;;;;;;;7.83;6.07;;;;;;;;;;5096442;28;20195;-62
2020/12/13 10:31:10;;;;;;;11.07;7.07;;;;;;;;;;5102425;27;20198;-61
2020/12/13 10:33:40;;;;;;;8.50;5.53;;;;;;;;;;5102126;28;20172;-63
2020/12/13 10:36:09;;;;;;;7.20;6.00;;;;;;;;;;5102561;28;20578;-63
2020/12/13 10:38:35;;;;;;;10.83;6.63;;;;;;;;;;5103906;28;20175;-65
2020/12/13 10:41:03;;;;;;;8.90;5.90;;;;;;;;;;5104032;28;20175;-64
2020/12/13 10:43:29;;;;;;;9.77;6.50;;;;;;;;;;5110055;28;20175;-64
2020/12/13 10:45:55;;;;;;;8.40;6.20;;;;;;;;;;5106645;28;20571;-65
2020/12/13 10:48:21;;;;;;;8.23;6.37;;;;;;;;;;5101416;28;20187;-63
2020/12/13 10:50:47;;;;;;;11.80;6.17;;;;;;;;;;5102315;28;20167;-63
2020/12/13 10:53:13;;;;;;;9.07;6.57;;;;;;;;;;5103608;28;20554;-64
2020/12/13 10:55:39;;;;;;;12.47;6.10;;;;;;;;;;5091147;28;20199;-61
2020/12/13 10:58:05;;;;;;;6.63;5.70;;;;;;;;;;5091171;28;20175;-63
2020/12/13 11:00:31;;;;;;;8.83;5.73;;;;;;;;;;5097546;28;20198;-61
2020/12/13 11:02:58;;;;;;;7.93;6.10;;;;;;;;;;5096793;28;20179;-64
2020/12/13 11:05:23;;;;;;;8.13;6.00;;;;;;;;;;5101210;28;20698;-64
2020/12/13 11:07:50;;;;;;;10.50;6.87;;;;;;;;;;5104549;28;20286;-62
2020/12/13 11:10:16;;;;;;;10.50;6.83;;;;;;;;;;5104424;28;20195;-64
2020/12/13 11:12:42;;;;;;;9.40;6.03;;;;;;;;;;5109757;28;20175;-64
2020/12/13 11:15:08;;;;;;;6.33;5.30;;;;;;;;;;5106887;28;20210;-64
2020/12/13 11:17:35;;;;;;;8.87;6.07;;;;;;;;;;5109716;28;20187;-64
2020/12/13 11:20:01;;;;;;;9.03;5.90;;;;;;;;;;5107744;28;20190;-66
2020/12/13 11:22:27;;;;;;;8.00;5.77;;;;;;;;;;5108531;28;20329;-63
2020/12/13 11:24:53;;;;;;;6.33;5.03;;;;;;;;;;5110058;28;20563;-63
2020/12/13 11:27:19;;;;;;;9.93;5.47;;;;;;;;;;5090817;28;20239;-63
2020/12/13 11:29:45;;;;;;;9.97;5.73;;;;;;;;;;5088246;28;20183;-63
2020/12/13 11:32:11;;;;;;;8.77;5.57;;;;;;;;;;5090613;28;20746;-64
2020/12/13 11:34:37;;;;;;;8.10;5.70;;;;;;;;;;5108646;28;20210;-64
2020/12/13 11:37:05;;;;;;;8.43;6.03;;;;;;;;;;5097055;28;20536;-64
2020/12/13 11:39:31;;;;;;;11.30;5.93;;;;;;;;;;5094793;28;20699;-65
2020/12/13 11:42:01;;;;;;;9.93;5.50;;;;;;;;;;5109701;28;20258;-63
2020/12/13 11:44:27;;;;;;;7.70;5.40;;;;;;;;;;5106395;28;20191;-64
2020/12/13 11:46:54;;;;;;;8.67;5.03;;;;;;;;;;5098756;28;20207;-63
2020/12/13 11:49:20;;;;;;;9.03;5.67;;;;;;;;;;5105009;28;20179;-64
2020/12/13 11:51:46;;;;;;;9.80;5.73;;;;;;;;;;5109446;28;20672;-65
2020/12/13 11:54:13;;;;;;;9.97;5.13;;;;;;;;;;5109927;28;20544;-64
2020/12/13 11:56:39;;;;;;;7.57;5.17;;;;;;;;;;5091697;28;20176;-63
2020/12/13 11:59:06;;;;;;;8.00;5.70;;;;;;;;;;5108977;28;20667;-64
2020/12/13 12:01:32;;;;;;;8.43;5.03;;;;;;;;;;5109064;28;20511;-64
2020/12/13 12:03:58;;;;;;;7.00;4.87;;;;;;;;;;5090861;28;20245;-63
2020/12/13 12:06:24;;;;;;;8.27;5.53;;;;;;;;;;5090617;28;20278;-64
2020/12/13 12:08:51;;;;;;;6.03;4.70;;;;;;;;;;5091554;28;20262;-63
2020/12/13 12:11:25;;;;;;;7.13;5.07;;;;;;;;;;5090507;28;20190;-64
2020/12/13 12:13:52;;;;;;;7.40;5.13;;;;;;;;;;5079999;28;20187;-67
2020/12/13 12:16:25;;;;;;;6.80;4.83;;;;;;;;;;5105852;28;20224;-64
2020/12/13 12:18:51;;;;;;;7.07;4.90;;;;;;;;;;5111142;28;20171;-63
2020/12/13 12:21:19;;;;;;;8.53;4.97;;;;;;;;;;5117793;27;20531;-64
2020/12/13 12:23:45;;;;;;;8.23;4.37;;;;;;;;;;5113575;28;20184;-63
2020/12/13 12:26:11;;;;;;;5.70;4.07;;;;;;;;;;5108503;28;20225;-63
2020/12/13 12:28:37;;;;;;;5.93;4.23;;;;;;;;;;5112795;28;20179;-64
2020/12/13 12:31:03;;;;;;;7.67;5.03;;;;;;;;;;5112086;28;20195;-64
2020/12/13 12:33:29;;;;;;;6.23;4.27;;;;;;;;;;5106200;28;20175;-64
2020/12/13 12:35:55;;;;;;;4.93;3.83;;;;;;;;;;5104737;28;20203;-64
2020/12/13 12:38:22;;;;;;;6.53;3.50;;;;;;;;;;5106311;28;20634;-64
2020/12/13 12:40:48;;;;;;;4.97;2.57;;;;;;;;;;5088606;28;20182;-64
2020/12/13 12:43:14;;;;;;;6.77;2.73;;;;;;;;;;5105385;28;20191;-64
2020/12/13 12:45:40;;;;;;;3.63;2.43;;;;;;;;;;5097862;28;20202;-63
2020/12/13 12:48:06;;;;;;;7.60;2.63;;;;;;;;;;5087945;28;20511;-63
2020/12/13 12:50:36;;;;;;;3.73;2.30;;;;;;;;;;5113030;27;20178;-65
2020/12/13 12:53:02;;;;;;;4.13;2.43;;;;;;;;;;5115481;27;20200;-65
2020/12/13 12:55:30;;;;;;;4.93;2.27;;;;;;;;;;5098755;27;20194;-63
2020/12/13 12:57:56;;;;;;;3.63;2.17;;;;;;;;;;5102890;27;20190;-62
2020/12/13 13:02:51;;;;;;;2.97;1.90;;;;;;;;;;5109221;28;20179;-62
2020/12/13 13:05:55;;;;;;;3.70;2.40;;;;;;;;;;5100531;28;20188;-62
2020/12/13 13:08:15;;;;;;;4.40;2.77;;;;;;;;;;5098401;28;20244;-62
2020/12/13 13:10:42;;;;;;;5.33;2.87;;;;;;;;;;5099064;28;20183;-62
2020/12/13 13:13:08;;;;;;;5.93;2.93;;;;;;;;;;5092259;28;20188;-59
2020/12/13 13:15:49;;;;;;;4.20;2.47;;;;;;;;;;5112925;28;20195;-62
2020/12/13 13:18:17;;;;;;;3.33;2.63;;;;;;;;;;5112003;28;20632;-63
2020/12/13 13:20:43;;;;;;;6.13;2.80;;;;;;;;;;5111844;27;20653;-63
2020/12/13 13:23:09;;;;;;;6.93;2.93;;;;;;;;;;5093704;28;20187;-62
2020/12/13 13:25:35;;;;;;;4.00;2.53;;;;;;;;;;5104346;28;20222;-62
2020/12/13 13:28:01;;;;;;;5.20;2.57;;;;;;;;;;5094454;28;20646;-61
2020/12/13 13:30:28;;;;;;;5.57;2.83;;;;;;;;;;5105654;28;20203;-62
2020/12/13 13:32:54;;;;;;;4.90;2.60;;;;;;;;;;5112307;28;20179;-62
2020/12/13 13:35:21;;;;;;;3.03;2.40;;;;;;;;;;5112638;28;20554;-62
2020/12/13 13:37:47;;;;;;;5.47;2.50;;;;;;;;;;5101442;28;20172;-61
2020/12/13 13:40:13;;;;;;;4.77;2.47;;;;;;;;;;5102352;28;20234;-62
2020/12/13 13:42:39;;;;;;;4.03;2.43;;;;;;;;;;5082705;28;20175;-61
2020/12/13 13:45:15;;;;;;;4.83;2.97;;;;;;;;;;5099391;28;20629;-63
2020/12/13 13:48:04;;;;;;;4.27;2.67;;;;;;;;;;5096235;28;20601;-62
2020/12/13 13:50:41;;;;;;;5.60;2.67;;;;;;;;;;5108425;27;20274;-62
2020/12/13 13:53:07;;;;;;;6.40;2.83;;;;;;;;;;5107599;28;20191;-61
2020/12/13 13:55:34;;;;;;;4.63;3.23;;;;;;;;;;5108970;28;20207;-62
2020/12/13 13:58:02;;;;;;;5.27;2.63;;;;;;;;;;5088666;28;20178;-60
2020/12/13 14:00:29;;;;;;;5.20;2.80;;;;;;;;;;5090755;28;20560;-60
2020/12/13 14:02:55;;;;;;;3.43;2.97;;;;;;;;;;5073406;28;20192;-61
2020/12/13 14:05:24;;;;;;;3.27;2.20;;;;;;;;;;5073093;28;20187;-60
2020/12/13 14:10:21;;;;;;;4.53;3.67;;;;;;;;;;5091402;28;20167;-60
2020/12/13 14:12:47;;;;;;;5.63;2.80;;;;;;;;;;5091255;28;20630;-60
2020/12/13 14:15:13;;;;;;;3.30;2.50;;;;;;;;;;5094648;28;20246;-61
2020/12/13 14:17:39;;;;;;;7.07;2.57;;;;;;;;;;5106105;28;20523;-60
2020/12/13 14:20:06;;;;;;;4.10;2.60;;;;;;;;;;5118832;27;20551;-60
2020/12/13 14:22:32;;;;;;;5.20;2.63;;;;;;;;;;5111963;28;20506;-61
2020/12/13 14:24:58;;;;;;;4.77;2.40;;;;;;;;;;5093551;28;20179;-60
2020/12/13 14:27:24;;;;;;;5.40;2.73;;;;;;;;;;5112158;28;20182;-60
2020/12/13 14:29:51;;;;;;;6.17;2.63;;;;;;;;;;5111296;28;20167;-60
2020/12/13 14:32:17;;;;;;;2.67;2.17;;;;;;;;;;5111545;28;20320;-60
2020/12/13 14:34:43;;;;;;;3.13;2.03;;;;;;;;;;5111385;28;20203;-63
2020/12/13 14:37:09;;;;;;;3.67;2.70;;;;;;;;;;5115378;27;20173;-60
2020/12/13 14:39:35;;;;;;;2.60;2.23;;;;;;;;;;5131942;27;20170;-61